메인 페이지
METAR-TAF:

METAR-TAF

공항 :

스토너웨이, 스코틀랜드

위도: 58-13N, 경도: 006-19W, 고도: 9m

현재 날씨관측

예보는 35분 전, 14:50시(UTC)에 발표되었습니다.
12kt
온도 16°C
습도 63%
기압 1015 hPa
시정 10km 이상
고도 2800ft 상공 구름 조금

METAR: EGPO 201450Z 19012KT 9999 FEW028 16/09 Q1015

시각: 16:25 (15:25 UTC)

예보

예보는 1 시간 28분 전, 13:57시(UTC)에 발표되었습니다.
예보 대상 시간: 20일 15시부터 20일 24시까지 (UTC)
12kt
시정 10km 이상
고도 2000ft 상공 구름 조금
전환 중
20일 18시부터 20일 21시까지 (UTC)
15kt, 순간 최대 풍속 25kt
일시적
20일 18시부터 20일 24시까지 (UTC)
시정: 4000m
고도 800ft 상공 구름 많음
비, 이슬비
확률 30% :
일시적
20일 21시부터 20일 24시까지 (UTC)
고도 400ft 상공 구름 많음
확률 30% :
일시적
20일 22시부터 20일 24시까지 (UTC)
20kt, 순간 최대 풍속 35kt

TAF: EGPO 201357Z 2015/2024 19012KT 9999 FEW020 BECMG 2018/2021 18015G25KT TEMPO 2018/2024 4000 RADZ BKN008 PROB30 TEMPO 2021/2024 BKN004 PROB30 TEMPO 2022/2024 19020G35KT

4,000개 이상의 공항 관측 자료 및 예보 (METAR 및 TAF 보고).

지도상에서 검색 가능한 기상관측소가 노란 점과 빨간 점으로 표시되어 있습니다.

기상관측소 명을 보려면 표시 위로 마우스를 이동하세요.

날씨 관측과 예보를 보려면 클릭하세요.

지도 변경 : 확대하려면 엑스 표시가 있는 녹색 버튼, 축소하려면 빼기 표시가 있는 녹색 버튼, 다음 페이지의 지도를 보려면 녹색 화살표를 클릭하세요.


METAR-TAF: